Terminal Aerodrome Forecast
Issued by NWS St Louis, MO

Home | Current Version | Previous Version | Text Only | Print | Product List | Glossary On
Versions: 1 2 3 4 5 6 7 8 9 10 11 12 13
000
FTUS43 KLSX 302321
TAFCOU
TAF
KCOU 302321Z 0100/0124 26010KT P6SM OVC035
     FM010500 26008KT P6SM SCT040
     FM011300 28010KT P6SM SCT250=

USA.gov is the U.S. government's official web portal to all federal, state and local government web resources and services.